New Yoshino — JG5527 — position and weather

sailwx.info

Track history (hours):
 
Tides and Currents Weather Stations Pressure Air Temp Water Temp Dewpoint Dewpoint Depression Visibility Wind Speed Wind Dir Waves Ship Positions

New Yoshino

Last reported at 2015-Mar-23 21:04 UTC. Time now 2015-Mar-26 19:11 UTC.
Position N 35°43' E 140°58'.

Length 102 m; draft 6.2 m.

Type: Tanker. MMSI: 431300724.

Date/timePositionNaut miles runAvg speedWind from/ knotsBaromVisibWave heightAir tempDewpointWater temp
2015-Mar-23 21:04N 35°43' E 140°58'612.5
2015-Mar-23 20:33N 35°37' E 140°54'1313.1
2015-Mar-23 19:31N 35°27' E 140°44'1512.8
2015-Mar-23 18:22N 35°15' E 140°33'2413.4
2015-Mar-23 16:33N 34°58' E 140°11'1413.6
2015-Mar-23 15:34N 34°51' E 139°58'1211.6
2015-Mar-23 14:33N 34°54' E 139°44'1413.7
2015-Mar-23 13:34N 35°07' E 139°45'1212.3
2015-Mar-23 12:33N 35°20' E 139°43'1111.4
2015-Mar-23 11:34N 35°31' E 139°46'1 0.8
2015-Mar-23 10:33N 35°31' E 139°46'0 0.0
2015-Mar-23 09:27N 35°31' E 139°46'0 0.0
2015-Mar-23 08:30N 35°31' E 139°46'0 0.0
2015-Mar-23 07:33N 35°31' E 139°46'0 0.0
2015-Mar-23 06:33N 35°31' E 139°46'0 0.0
2015-Mar-23 05:33N 35°31' E 139°46'5 4.9
2015-Mar-23 04:33N 35°27' E 139°43'10 9.9
2015-Mar-23 03:33N 35°17' E 139°45'1313.4
2015-Mar-23 02:34N 35°04' E 139°45'20 8.5
2015-Mar-23 00:16N 34°57' E 140°07'2313.1
2015-Mar-22 22:32N 35°11' E 140°29'1414.5
2015-Mar-22 21:33N 35°22' E 140°40'1514.6
2015-Mar-22 20:33N 35°33' E 140°51'1514.6
2015-Mar-22 19:33N 35°47' E 140°58'1515.0
2015-Mar-22 18:34N 36°01' E 141°00'93 2.7
2015-Mar-21 08:12N 34°52' E 139°44'913.5
2015-Mar-21 07:33N 35°01' E 139°42'1413.7
2015-Mar-21 06:33N 35°14' E 139°46'1111.5
2015-Mar-21 05:33N 35°25' E 139°44'6 0.7
2015-Mar-20 21:21N 35°31' E 139°46'3 4.3
2015-Mar-20 20:34N 35°29' E 139°43'3 3.2
2015-Mar-20 19:33N 35°26' E 139°45'6 5.9
2015-Mar-20 18:34N 35°21' E 139°45'1211.7
2015-Mar-20 17:33N 35°09' E 139°46'1414.5
2015-Mar-20 16:33N 34°59' E 139°34'  
2015-Mar-15 08:09N 34°52' E 139°45'814.2
2015-Mar-15 07:33N 35°01' E 139°43'1413.5
2015-Mar-15 06:33N 35°14' E 139°46'1212.0
2015-Mar-15 05:33N 35°26' E 139°44'5 0.7
2015-Mar-14 21:33N 35°31' E 139°46'6 6.2
2015-Mar-14 20:33N 35°25' E 139°45'1 0.6
2015-Mar-14 19:33N 35°24' E 139°45'0 0.0
2015-Mar-14 18:33N 35°24' E 139°45'0 0.0
2015-Mar-14 17:30N 35°24' E 139°45'0 0.0
2015-Mar-14 16:33N 35°24' E 139°45'0 0.0
2015-Mar-14 15:33N 35°24' E 139°45'0 0.0
2015-Mar-14 14:33N 35°24' E 139°45'0 0.0
2015-Mar-14 13:33N 35°24' E 139°45'0 0.0
2015-Mar-14 12:33N 35°24' E 139°45'0 0.0
2015-Mar-14 11:33N 35°24' E 139°45'0 0.0
2015-Mar-14 10:33N 35°24' E 139°45'0 0.0
2015-Mar-14 09:33N 35°24' E 139°45'0 0.0
2015-Mar-14 08:33N 35°24' E 139°45'0 0.0
2015-Mar-14 07:30N 35°24' E 139°45'0 0.0
2015-Mar-14 06:33N 35°24' E 139°45'0 0.0
2015-Mar-14 05:33N 35°24' E 139°45'0 0.0
2015-Mar-14 04:30N 35°24' E 139°45'0 0.0
2015-Mar-14 03:33N 35°24' E 139°45'0 0.0
2015-Mar-14 02:33N 35°24' E 139°45'0 0.0
2015-Mar-14 01:33N 35°24' E 139°45'0 0.0
2015-Mar-14 00:33N 35°24' E 139°45'8 8.6
2015-Mar-13 23:34N 35°16' E 139°46'1313.4
2015-Mar-13 22:34N 35°03' E 139°44'  
Track history (hours):
 
Tides and Currents Weather Stations Pressure Air Temp Water Temp Dewpoint Dewpoint Depression Visibility Wind Speed Wind Dir Waves Ship Positions

New Yoshino

Last reported at 2015-Mar-23 21:04 UTC. Time now 2015-Mar-26 19:11 UTC.
Position N 35°43' E 140°58'.

Length 102 m; draft 6.2 m.

Type: Tanker. MMSI: 431300724.

Date/timePositionNaut miles runAvg speedWind from/ knotsBaromVisibWave heightAir tempDewpointWater temp
2015-Mar-23 21:04N 35°43' E 140°58'612.5
2015-Mar-23 20:33N 35°37' E 140°54'1313.1
2015-Mar-23 19:31N 35°27' E 140°44'1512.8
2015-Mar-23 18:22N 35°15' E 140°33'2413.4
2015-Mar-23 16:33N 34°58' E 140°11'1413.6
2015-Mar-23 15:34N 34°51' E 139°58'1211.6
2015-Mar-23 14:33N 34°54' E 139°44'1413.7
2015-Mar-23 13:34N 35°07' E 139°45'1212.3
2015-Mar-23 12:33N 35°20' E 139°43'1111.4
2015-Mar-23 11:34N 35°31' E 139°46'1 0.8
2015-Mar-23 10:33N 35°31' E 139°46'0 0.0
2015-Mar-23 09:27N 35°31' E 139°46'0 0.0
2015-Mar-23 08:30N 35°31' E 139°46'0 0.0
2015-Mar-23 07:33N 35°31' E 139°46'0 0.0
2015-Mar-23 06:33N 35°31' E 139°46'0 0.0
2015-Mar-23 05:33N 35°31' E 139°46'5 4.9
2015-Mar-23 04:33N 35°27' E 139°43'10 9.9
2015-Mar-23 03:33N 35°17' E 139°45'1313.4
2015-Mar-23 02:34N 35°04' E 139°45'20 8.5
2015-Mar-23 00:16N 34°57' E 140°07'2313.1
2015-Mar-22 22:32N 35°11' E 140°29'1414.5
2015-Mar-22 21:33N 35°22' E 140°40'1514.6
2015-Mar-22 20:33N 35°33' E 140°51'1514.6
2015-Mar-22 19:33N 35°47' E 140°58'1515.0
2015-Mar-22 18:34N 36°01' E 141°00'93 2.7
2015-Mar-21 08:12N 34°52' E 139°44'913.5
2015-Mar-21 07:33N 35°01' E 139°42'1413.7
2015-Mar-21 06:33N 35°14' E 139°46'1111.5
2015-Mar-21 05:33N 35°25' E 139°44'6 0.7
2015-Mar-20 21:21N 35°31' E 139°46'3 4.3
2015-Mar-20 20:34N 35°29' E 139°43'3 3.2
2015-Mar-20 19:33N 35°26' E 139°45'6 5.9
2015-Mar-20 18:34N 35°21' E 139°45'1211.7
2015-Mar-20 17:33N 35°09' E 139°46'1414.5
2015-Mar-20 16:33N 34°59' E 139°34'  
2015-Mar-15 08:09N 34°52' E 139°45'814.2
2015-Mar-15 07:33N 35°01' E 139°43'1413.5
2015-Mar-15 06:33N 35°14' E 139°46'1212.0
2015-Mar-15 05:33N 35°26' E 139°44'5 0.7
2015-Mar-14 21:33N 35°31' E 139°46'6 6.2
2015-Mar-14 20:33N 35°25' E 139°45'1 0.6
2015-Mar-14 19:33N 35°24' E 139°45'0 0.0
2015-Mar-14 18:33N 35°24' E 139°45'0 0.0
2015-Mar-14 17:30N 35°24' E 139°45'0 0.0
2015-Mar-14 16:33N 35°24' E 139°45'0 0.0
2015-Mar-14 15:33N 35°24' E 139°45'0 0.0
2015-Mar-14 14:33N 35°24' E 139°45'0 0.0
2015-Mar-14 13:33N 35°24' E 139°45'0 0.0
2015-Mar-14 12:33N 35°24' E 139°45'0 0.0
2015-Mar-14 11:33N 35°24' E 139°45'0 0.0
2015-Mar-14 10:33N 35°24' E 139°45'0 0.0
2015-Mar-14 09:33N 35°24' E 139°45'0 0.0
2015-Mar-14 08:33N 35°24' E 139°45'0 0.0
2015-Mar-14 07:30N 35°24' E 139°45'0 0.0
2015-Mar-14 06:33N 35°24' E 139°45'0 0.0
2015-Mar-14 05:33N 35°24' E 139°45'0 0.0
2015-Mar-14 04:30N 35°24' E 139°45'0 0.0
2015-Mar-14 03:33N 35°24' E 139°45'0 0.0
2015-Mar-14 02:33N 35°24' E 139°45'0 0.0
2015-Mar-14 01:33N 35°24' E 139°45'0 0.0
2015-Mar-14 00:33N 35°24' E 139°45'8 8.6
2015-Mar-13 23:34N 35°16' E 139°46'1313.4
2015-Mar-13 22:34N 35°03' E 139°44'  

Dump ship's entire track history